Time;durP1;ratioP1;P1;durP2;ratioP2;P2;SDS_P1;SDS_P2;PMS_P1;PMS_P2;Temp;Humidity;BMP_temperature;BMP_pressure;BME280_temperature;BME280_humidity;BME280_pressure;Samples;Min_cycle;Max_cycle;Signal;HPM_P1;HPM_P2
2021/11/26 00:05:53;;;;;;;6.40;2.53;;;3.00;99.90;;;;;;5085932;28;20382;-83
2021/11/26 00:08:20;;;;;;;12.88;3.42;;;3.00;99.90;;;;;;5076921;28;20040;-84
2021/11/26 00:13:58;;;;;;;9.93;3.50;;;3.00;99.90;;;;;;5055482;28;20597;-83
2021/11/26 00:16:38;;;;;;;13.67;4.50;;;3.00;99.90;;;;;;5065392;28;20386;-84
2021/11/26 00:19:43;;;;;;;7.33;3.50;;;3.00;99.90;;;;;;5053688;28;20067;-84
2021/11/26 00:22:28;;;;;;;10.82;4.07;;;3.10;99.90;;;;;;5050755;28;20117;-83
2021/11/26 00:25:11;;;;;;;8.57;3.80;;;3.10;99.90;;;;;;5049204;28;20064;-84
2021/11/26 00:27:46;;;;;;;13.30;3.60;;;3.10;99.90;;;;;;5043398;28;20041;-84
2021/11/26 00:30:58;;;;;;;8.00;3.77;;;3.10;99.90;;;;;;5053764;28;20056;-86
2021/11/26 00:34:06;;;;;;;;;;;;;;;;;;;;;
2021/11/26 00:39:47;;;;;;;7.10;3.10;;;3.30;99.90;;;;;;5056572;28;20510;-85
2021/11/26 00:42:18;;;;;;;8.95;4.13;;;3.30;99.90;;;;;;5028795;28;20036;-86
2021/11/26 00:44:56;;;;;;;8.95;3.25;;;3.30;99.90;;;;;;5049822;28;20052;-86
2021/11/26 00:47:24;;;;;;;7.57;4.18;;;3.40;99.90;;;;;;5045470;28;20115;-86
2021/11/26 00:49:50;;;;;;;18.52;5.10;;;3.50;99.90;;;;;;5057569;28;20404;-86
2021/11/26 00:52:17;;;;;;;16.73;5.20;;;3.50;99.90;;;;;;5043187;28;20477;-85
2021/11/26 00:54:46;;;;;;;14.43;4.88;;;3.60;99.90;;;;;;5049344;28;20039;-85
2021/11/26 00:57:13;;;;;;;14.17;4.93;;;3.60;99.90;;;;;;5094437;28;20036;-83
2021/11/26 00:59:40;;;;;;;12.43;5.05;;;3.60;99.90;;;;;;5045040;28;20518;-83
2021/11/26 01:02:07;;;;;;;11.48;4.85;;;3.70;99.90;;;;;;5060008;28;20048;-83
2021/11/26 01:04:34;;;;;;;10.50;3.20;;;3.80;99.90;;;;;;5055644;28;20391;-83
2021/11/26 01:07:04;;;;;;;11.30;4.55;;;3.80;99.90;;;;;;5081410;28;20036;-82
2021/11/26 01:09:33;;;;;;;14.45;3.72;;;3.90;99.90;;;;;;5027774;28;20480;-83
2021/11/26 01:12:10;;;;;;;7.75;2.95;;;3.90;99.90;;;;;;5074059;28;20471;-83
2021/11/26 01:14:48;;;;;;;8.77;2.43;;;3.90;99.90;;;;;;5032523;28;20484;-83
2021/11/26 01:17:26;;;;;;;;;;;4.00;99.90;;;;;;5058838;28;20048;-83
2021/11/26 01:20:01;;;;;;;5.28;2.33;;;4.00;99.90;;;;;;5050870;28;19920;-83
2021/11/26 01:22:47;;;;;;;11.25;4.25;;;3.90;99.90;;;;;;5037468;28;20044;-83
2021/11/26 01:25:27;;;;;;;9.00;3.45;;;3.90;99.90;;;;;;5044596;28;20048;-83
2021/11/26 01:28:00;;;;;;;;;;;3.90;99.90;;;;;;5049797;28;20047;-83
2021/11/26 01:30:49;;;;;;;11.25;3.33;;;3.90;99.90;;;;;;5060082;28;19908;-84
2021/11/26 01:33:25;;;;;;;8.23;2.80;;;3.90;99.90;;;;;;5031167;28;20040;-83
2021/11/26 01:36:53;;;;;;;11.13;3.20;;;3.90;99.90;;;;;;5049767;28;20514;-83
2021/11/26 01:39:41;;;;;;;12.68;3.05;;;3.90;99.90;;;;;;5061406;28;20044;-85
2021/11/26 01:42:15;;;;;;;10.05;3.03;;;3.90;99.90;;;;;;5064281;28;20054;-85
2021/11/26 01:45:11;;;;;;;6.70;2.70;;;3.90;99.90;;;;;;5044490;28;20048;-85
2021/11/26 01:47:47;;;;;;;8.60;2.60;;;4.00;99.90;;;;;;5046709;28;20043;-85
2021/11/26 01:50:22;;;;;;;8.38;2.13;;;4.00;99.90;;;;;;5050892;28;20040;-85
2021/11/26 01:52:58;;;;;;;6.50;2.30;;;4.00;99.90;;;;;;5048820;28;20435;-85
2021/11/26 01:55:47;;;;;;;;;;;4.10;99.90;;;;;;5058422;28;20031;-84
2021/11/26 01:58:20;;;;;;;5.43;1.73;;;4.10;99.90;;;;;;5052271;28;19919;-84
2021/11/26 02:01:06;;;;;;;;;;;4.10;99.90;;;;;;5057935;28;20047;-84
2021/11/26 02:03:35;;;;;;;5.88;1.40;;;4.10;99.90;;;;;;5046520;28;19924;-85
2021/11/26 02:06:04;;;;;;;4.78;1.40;;;4.20;99.90;;;;;;5043415;28;20510;-83
2021/11/26 02:08:34;;;;;;;6.63;1.52;;;4.20;99.90;;;;;;5042471;28;20047;-85
2021/11/26 02:11:13;;;;;;;8.40;1.73;;;4.20;99.90;;;;;;5052850;28;20040;-84
2021/11/26 02:14:06;;;;;;;7.88;2.00;;;4.30;99.90;;;;;;5060601;28;20645;-84
2021/11/26 02:16:51;;;;;;;8.35;2.35;;;4.20;99.90;;;;;;5043700;28;20039;-84
2021/11/26 02:19:25;;;;;;;9.45;2.75;;;4.20;99.90;;;;;;5067249;28;21191;-85
2021/11/26 02:21:58;;;;;;;6.45;2.55;;;4.20;99.90;;;;;;5060331;28;20044;-85
2021/11/26 02:24:25;;;;;;;7.13;2.85;;;4.20;99.90;;;;;;5067486;28;20490;-84
2021/11/26 02:26:55;;;;;;;7.00;2.42;;;4.20;99.90;;;;;;5080912;28;20040;-84
2021/11/26 02:29:30;;;;;;;7.25;2.60;;;4.20;99.90;;;;;;5072650;28;20497;-85
2021/11/26 02:32:07;;;;;;;6.35;2.78;;;4.30;99.90;;;;;;5026671;28;20056;-85
2021/11/26 02:34:48;;;;;;;6.40;2.13;;;4.30;99.90;;;;;;5074435;28;20028;-85
2021/11/26 02:37:17;;;;;;;4.25;2.17;;;4.30;99.90;;;;;;5044740;28;20033;-85
2021/11/26 02:39:57;;;;;;;6.30;2.47;;;4.40;99.90;;;;;;5035013;28;20040;-84
2021/11/26 02:47:33;;;;;;;6.13;2.00;;;4.50;99.90;;;;;;4921868;28;20051;-84
2021/11/26 02:50:13;;;;;;;7.87;1.83;;;4.50;99.90;;;;;;5042418;28;20158;-84
2021/11/26 02:52:43;;;;;;;4.13;1.95;;;4.50;99.90;;;;;;5060752;28;20036;-85
2021/11/26 02:55:13;;;;;;;7.32;2.80;;;4.60;99.90;;;;;;5046718;28;20032;-84
2021/11/26 02:57:41;;;;;;;5.78;2.38;;;4.60;99.90;;;;;;5062667;28;20356;-84
2021/11/26 03:00:11;;;;;;;7.60;2.13;;;4.60;99.90;;;;;;5041812;28;20045;-84
2021/11/26 03:02:40;;;;;;;6.70;2.63;;;4.60;99.90;;;;;;5070033;28;20040;-84
2021/11/26 03:05:10;;;;;;;6.18;3.25;;;4.60;99.90;;;;;;5066694;28;20066;-84
2021/11/26 03:07:42;;;;;;;5.65;3.03;;;4.60;99.90;;;;;;5060251;28;20040;-84
2021/11/26 03:10:16;;;;;;;6.72;3.65;;;4.60;99.90;;;;;;5047350;28;20033;-84
2021/11/26 03:12:52;;;;;;;9.38;3.25;;;4.60;99.90;;;;;;5062482;28;20123;-83
2021/11/26 03:15:20;;;;;;;5.82;3.75;;;4.60;99.90;;;;;;5041539;28;20043;-84
2021/11/26 03:17:54;;;;;;;7.28;4.05;;;4.60;99.90;;;;;;5080069;28;20037;-84
2021/11/26 03:20:23;;;;;;;7.35;3.83;;;4.60;99.90;;;;;;5065495;28;20044;-84
2021/11/26 03:22:55;;;;;;;7.00;4.18;;;4.60;99.90;;;;;;5062357;28;20035;-84
2021/11/26 03:25:26;;;;;;;8.73;3.85;;;4.60;99.90;;;;;;5059402;28;20041;-84
2021/11/26 03:27:56;;;;;;;6.47;3.08;;;4.60;99.90;;;;;;5061036;28;20098;-84
2021/11/26 03:30:24;;;;;;;8.65;4.32;;;4.60;99.90;;;;;;5054504;28;20037;-84
2021/11/26 03:33:04;;;;;;;8.18;3.40;;;4.60;99.90;;;;;;5061339;28;20048;-84
2021/11/26 03:35:32;;;;;;;5.07;3.22;;;4.50;99.90;;;;;;5058079;28;20859;-84
2021/11/26 03:38:05;;;;;;;7.45;4.15;;;4.50;99.90;;;;;;5063992;28;20479;-84
2021/11/26 03:40:35;;;;;;;11.98;5.13;;;4.50;99.90;;;;;;5042496;28;20048;-84
2021/11/26 03:43:09;;;;;;;7.40;4.25;;;4.50;99.90;;;;;;5054648;28;20124;-84
2021/11/26 03:45:36;;;;;;;6.10;3.05;;;4.40;99.90;;;;;;5030267;28;20051;-84
2021/11/26 03:48:04;;;;;;;6.47;4.40;;;4.40;99.90;;;;;;5050102;28;20036;-84
2021/11/26 03:50:31;;;;;;;6.07;3.83;;;4.40;99.90;;;;;;5042797;28;20024;-84
2021/11/26 03:53:01;;;;;;;7.50;4.93;;;4.40;99.90;;;;;;5048176;28;20032;-84
2021/11/26 03:55:34;;;;;;;8.20;5.68;;;4.40;99.90;;;;;;5043131;28;20051;-84
2021/11/26 03:58:01;;;;;;;11.38;6.05;;;4.40;99.90;;;;;;5045218;28;20048;-84
2021/11/26 04:00:30;;;;;;;9.20;5.95;;;4.40;99.90;;;;;;5049166;28;20057;-83
2021/11/26 04:03:05;;;;;;;8.65;6.05;;;4.40;99.90;;;;;;5066306;28;20128;-84
2021/11/26 04:05:37;;;;;;;8.38;5.53;;;4.40;99.90;;;;;;5058820;28;20039;-84
2021/11/26 04:08:13;;;;;;;9.60;6.00;;;4.40;99.90;;;;;;5045826;28;20040;-83
2021/11/26 04:10:43;;;;;;;10.55;6.00;;;4.40;99.90;;;;;;5040032;28;20043;-84
2021/11/26 04:13:17;;;;;;;11.93;6.20;;;4.50;99.90;;;;;;5058612;28;20049;-84
2021/11/26 04:15:47;;;;;;;9.57;6.80;;;4.50;99.90;;;;;;5060198;28;20036;-84
2021/11/26 04:18:14;;;;;;;13.95;8.75;;;4.50;99.90;;;;;;5077793;28;20484;-84
2021/11/26 04:20:45;;;;;;;10.35;7.13;;;4.50;99.90;;;;;;5076633;28;20040;-84
2021/11/26 04:23:12;;;;;;;14.70;8.80;;;4.50;99.90;;;;;;5066372;28;20047;-84
2021/11/26 04:25:42;;;;;;;11.20;8.05;;;4.60;99.90;;;;;;5077438;28;20040;-84
2021/11/26 04:28:09;;;;;;;12.18;7.25;;;4.50;99.90;;;;;;5052760;28;20031;-84
2021/11/26 04:30:36;;;;;;;11.48;8.18;;;4.60;99.90;;;;;;5046919;28;20047;-84
2021/11/26 04:33:02;;;;;;;10.15;6.60;;;4.60;99.90;;;;;;5060169;28;20024;-84
2021/11/26 04:35:29;;;;;;;8.82;6.55;;;4.60;99.90;;;;;;5054451;28;20047;-84
2021/11/26 04:38:01;;;;;;;10.57;5.80;;;4.60;99.90;;;;;;5046117;28;20040;-83
2021/11/26 04:40:27;;;;;;;5.97;4.90;;;4.60;99.90;;;;;;5057075;28;20032;-83
2021/11/26 04:42:57;;;;;;;7.72;4.55;;;4.60;99.90;;;;;;5043888;28;20036;-83
2021/11/26 04:45:23;;;;;;;6.03;4.97;;;4.70;99.90;;;;;;5069363;28;20035;-84
2021/11/26 04:48:00;;;;;;;;;;;;;;;;;;;;;
2021/11/26 04:50:37;;;;;;;7.47;4.57;;;4.70;99.90;;;;;;5064301;28;20383;-84
2021/11/26 04:53:07;;;;;;;6.47;4.65;;;4.70;99.90;;;;;;5051201;28;20042;-83
2021/11/26 04:55:41;;;;;;;7.88;3.78;;;4.70;99.90;;;;;;5081937;28;20034;-83
2021/11/26 04:58:15;;;;;;;8.93;2.95;;;4.70;99.90;;;;;;5059529;28;20038;-83
2021/11/26 05:00:47;;;;;;;5.63;2.63;;;4.70;99.90;;;;;;5061931;28;20039;-83
2021/11/26 05:03:34;;;;;;;8.48;2.42;;;4.70;99.90;;;;;;5054966;28;20036;-83
2021/11/26 05:06:15;;;;;;;9.55;2.20;;;4.80;99.90;;;;;;5063649;28;20051;-83
2021/11/26 05:08:47;;;;;;;4.93;1.73;;;4.80;99.90;;;;;;5027536;28;20481;-83
2021/11/26 05:11:14;;;;;;;7.50;1.70;;;4.80;99.90;;;;;;5061967;28;20028;-83
2021/11/26 05:13:43;;;;;;;4.82;1.90;;;4.80;99.90;;;;;;5055604;28;20036;-83
2021/11/26 05:16:13;;;;;;;5.70;1.77;;;4.80;99.90;;;;;;5066949;28;20123;-83
2021/11/26 05:18:44;;;;;;;5.10;1.20;;;4.70;99.90;;;;;;5066458;28;20054;-83
2021/11/26 05:21:12;;;;;;;7.68;1.00;;;4.60;99.90;;;;;;5046408;28;20043;-83
2021/11/26 05:23:38;;;;;;;3.25;0.98;;;4.60;99.90;;;;;;5043379;28;20043;-83
2021/11/26 05:26:05;;;;;;;2.85;0.70;;;4.60;99.90;;;;;;5057819;28;20047;-83
2021/11/26 05:28:32;;;;;;;3.67;0.80;;;4.60;99.90;;;;;;5075138;28;20810;-83
2021/11/26 05:31:02;;;;;;;3.35;1.02;;;4.50;99.90;;;;;;5046586;28;20047;-83
2021/11/26 05:33:38;;;;;;;2.63;0.80;;;4.50;99.90;;;;;;5030212;28;20043;-83
2021/11/26 05:36:05;;;;;;;5.90;1.17;;;4.50;99.90;;;;;;5064637;28;20036;-83
2021/11/26 05:38:32;;;;;;;7.57;1.30;;;4.40;99.90;;;;;;5064646;28;20047;-82
2021/11/26 05:41:05;;;;;;;3.78;1.02;;;4.40;99.90;;;;;;5044090;28;20465;-83
2021/11/26 05:43:32;;;;;;;3.47;0.80;;;4.40;99.90;;;;;;5061763;28;20032;-82
2021/11/26 05:45:59;;;;;;;4.37;0.90;;;4.40;99.90;;;;;;5076250;28;20040;-82
2021/11/26 05:48:25;;;;;;;6.70;1.00;;;4.40;99.90;;;;;;5038723;28;20044;-82
2021/11/26 05:50:52;;;;;;;4.40;0.80;;;4.40;99.90;;;;;;5061476;28;20098;-83
2021/11/26 05:53:19;;;;;;;4.80;1.05;;;4.30;99.90;;;;;;5062014;28;20042;-83
2021/11/26 05:55:48;;;;;;;4.32;0.80;;;4.30;99.90;;;;;;5062841;28;20035;-83
2021/11/26 05:58:14;;;;;;;3.28;1.00;;;4.30;99.90;;;;;;5063685;28;20035;-83
2021/11/26 06:00:40;;;;;;;4.63;1.63;;;4.30;99.90;;;;;;5057199;28;20037;-82
2021/11/26 06:03:12;;;;;;;2.90;0.70;;;4.40;99.90;;;;;;5034003;28;20372;-83
2021/11/26 06:05:39;;;;;;;3.63;0.90;;;4.30;99.90;;;;;;5065214;28;20028;-83
2021/11/26 06:08:05;;;;;;;3.95;1.55;;;4.30;99.90;;;;;;5039002;28;20399;-84
2021/11/26 06:10:32;;;;;;;6.45;0.98;;;4.30;99.90;;;;;;5040620;28;20036;-83
2021/11/26 06:12:58;;;;;;;3.78;1.00;;;4.30;99.90;;;;;;5047389;28;20032;-84
2021/11/26 06:15:25;;;;;;;4.35;1.05;;;4.40;99.90;;;;;;5062145;28;20081;-83
2021/11/26 06:17:52;;;;;;;5.97;1.35;;;4.30;99.90;;;;;;5062365;28;20521;-83
2021/11/26 06:20:19;;;;;;;3.22;1.50;;;4.40;99.90;;;;;;5030138;28;20118;-82
2021/11/26 06:22:46;;;;;;;4.38;1.10;;;4.40;99.90;;;;;;5061012;28;20475;-83
2021/11/26 06:25:14;;;;;;;5.22;1.48;;;4.30;99.90;;;;;;5063259;28;20040;-84
2021/11/26 06:27:41;;;;;;;4.22;1.35;;;4.30;99.90;;;;;;5024082;28;20064;-84
2021/11/26 06:30:11;;;;;;;3.97;1.77;;;4.30;99.90;;;;;;5061136;28;20051;-84
2021/11/26 06:32:39;;;;;;;3.65;1.42;;;4.30;99.90;;;;;;5047893;28;20040;-84
2021/11/26 06:35:06;;;;;;;5.88;2.60;;;4.30;99.90;;;;;;5057629;28;20032;-83
2021/11/26 06:37:34;;;;;;;7.22;2.33;;;4.30;99.90;;;;;;5068023;28;20475;-87
2021/11/26 06:40:00;;;;;;;5.60;2.10;;;4.30;99.90;;;;;;5023382;28;20024;-87
2021/11/26 06:42:27;;;;;;;7.65;4.22;;;4.40;99.90;;;;;;5029235;28;20028;-86
2021/11/26 06:44:53;;;;;;;8.18;4.25;;;4.40;99.90;;;;;;5060241;28;20032;-87
2021/11/26 06:47:20;;;;;;;7.43;3.67;;;4.50;99.90;;;;;;5015539;28;20538;-87
2021/11/26 06:49:48;;;;;;;9.80;4.28;;;4.50;99.90;;;;;;5059882;28;20459;-87
2021/11/26 06:52:15;;;;;;;15.68;7.13;;;4.60;99.90;;;;;;5067103;28;20035;-85
2021/11/26 06:54:43;;;;;;;9.55;5.60;;;4.60;99.90;;;;;;5046792;28;20032;-84
2021/11/26 06:57:10;;;;;;;10.43;4.45;;;4.60;99.90;;;;;;5048520;28;20039;-84
2021/11/26 06:59:36;;;;;;;8.43;4.25;;;4.60;99.90;;;;;;5063028;28;20033;-82
2021/11/26 07:02:05;;;;;;;12.70;4.07;;;4.60;99.90;;;;;;5062581;28;20045;-82
2021/11/26 07:04:32;;;;;;;9.93;3.95;;;4.70;99.90;;;;;;5083139;28;20498;-82
2021/11/26 07:07:00;;;;;;;7.43;3.70;;;4.70;99.90;;;;;;5072780;28;20055;-82
2021/11/26 07:09:27;;;;;;;9.93;3.75;;;4.70;99.90;;;;;;5054193;28;20483;-82
2021/11/26 07:11:54;;;;;;;11.20;4.32;;;4.70;99.90;;;;;;5073959;28;20043;-82
2021/11/26 07:14:20;;;;;;;10.07;4.15;;;4.60;99.90;;;;;;5076409;28;20471;-82
2021/11/26 07:16:47;;;;;;;5.97;2.92;;;4.60;99.90;;;;;;5067739;28;20387;-82
2021/11/26 07:19:14;;;;;;;8.50;2.90;;;4.60;99.90;;;;;;5056533;28;20041;-81
2021/11/26 07:21:51;;;;;;;9.38;2.78;;;4.60;99.90;;;;;;5041322;28;20054;-81
2021/11/26 07:24:17;;;;;;;;;;;4.50;99.90;;;;;;5057161;28;20091;-81
2021/11/26 07:26:44;;;;;;;10.48;4.00;;;4.60;99.90;;;;;;5064868;28;19928;-81
2021/11/26 07:29:10;;;;;;;7.20;3.50;;;4.50;99.90;;;;;;5016049;28;20036;-81
2021/11/26 07:31:37;;;;;;;13.23;4.63;;;4.50;99.90;;;;;;5064091;28;20494;-81
2021/11/26 07:34:03;;;;;;;8.02;3.50;;;4.50;99.90;;;;;;5034083;28;20038;-85
2021/11/26 07:36:30;;;;;;;11.10;4.15;;;4.50;99.90;;;;;;5031844;28;20047;-85
2021/11/26 07:38:57;;;;;;;14.80;5.20;;;4.50;99.90;;;;;;5073224;28;20054;-84
2021/11/26 07:41:28;;;;;;;14.40;4.53;;;4.50;99.90;;;;;;5053835;28;20031;-85
2021/11/26 07:43:55;;;;;;;9.93;4.00;;;4.50;99.90;;;;;;5050961;28;20517;-85
2021/11/26 07:46:22;;;;;;;13.63;6.10;;;4.50;99.90;;;;;;5030468;28;20050;-86
2021/11/26 07:48:49;;;;;;;15.18;5.82;;;4.60;99.90;;;;;;5049386;28;20504;-86
2021/11/26 07:51:16;;;;;;;15.40;6.53;;;4.50;99.90;;;;;;5055709;28;20048;-85
2021/11/26 07:53:42;;;;;;;15.57;6.38;;;4.50;99.90;;;;;;5044992;28;20043;-86
2021/11/26 07:56:09;;;;;;;16.48;7.05;;;4.50;99.90;;;;;;5089487;28;20039;-85
2021/11/26 07:58:35;;;;;;;17.30;7.05;;;4.50;99.90;;;;;;5063737;28;20039;-84
2021/11/26 08:01:02;;;;;;;15.32;7.18;;;4.50;99.90;;;;;;5051533;28;20048;-85
2021/11/26 08:03:29;;;;;;;23.10;9.27;;;4.50;99.90;;;;;;5064917;28;20039;-84
2021/11/26 08:06:05;;;;;;;30.75;11.55;;;4.40;99.90;;;;;;5067665;28;20032;-85
2021/11/26 08:08:32;;;;;;;14.82;8.32;;;4.40;99.90;;;;;;5082254;28;20028;-86
2021/11/26 08:10:58;;;;;;;19.02;7.55;;;4.40;99.90;;;;;;5083831;28;20028;-85
2021/11/26 08:13:25;;;;;;;18.35;8.02;;;4.30;99.90;;;;;;5048067;28;20044;-86
2021/11/26 08:15:51;;;;;;;19.85;7.97;;;4.30;99.90;;;;;;5066623;28;20491;-85
2021/11/26 08:18:18;;;;;;;18.25;7.80;;;4.30;99.90;;;;;;5045396;28;20036;-85
2021/11/26 08:20:44;;;;;;;12.98;6.93;;;4.30;99.90;;;;;;5037941;28;20040;-86
2021/11/26 08:23:11;;;;;;;16.33;7.63;;;4.30;99.90;;;;;;5063561;28;20035;-85
2021/11/26 08:25:38;;;;;;;19.47;7.83;;;4.40;99.90;;;;;;5074754;28;20036;-85
2021/11/26 08:28:09;;;;;;;21.35;8.43;;;4.50;99.90;;;;;;5041117;28;20613;-84
2021/11/26 08:30:36;;;;;;;28.90;7.88;;;4.50;99.90;;;;;;5037033;28;20745;-80
2021/11/26 08:33:02;;;;;;;20.50;8.52;;;4.60;99.90;;;;;;5058136;28;20041;-80
2021/11/26 08:35:29;;;;;;;20.50;8.18;;;4.60;99.90;;;;;;5030566;28;20043;-80
2021/11/26 08:37:58;;;;;;;24.42;8.13;;;4.70;99.90;;;;;;5048389;28;20043;-80
2021/11/26 08:40:25;;;;;;;19.02;7.90;;;4.70;99.90;;;;;;5044050;28;20143;-80
2021/11/26 08:42:51;;;;;;;25.10;7.38;;;4.70;99.90;;;;;;5058867;28;20036;-80
2021/11/26 08:45:19;;;;;;;22.88;7.60;;;4.80;99.90;;;;;;5010340;28;20036;-80
2021/11/26 08:48:07;;;;;;;23.90;7.10;;;4.80;99.90;;;;;;5096017;28;20043;-82
2021/11/26 08:55:03;;;;;;;30.70;7.65;;;4.90;99.90;;;;;;5077803;28;20048;-78
2021/11/26 08:57:30;;;;;;;26.75;9.18;;;4.90;99.90;;;;;;5066280;28;20036;-78
2021/11/26 08:59:56;;;;;;;22.98;7.60;;;4.90;99.90;;;;;;5069981;28;20035;-80
2021/11/26 09:02:23;;;;;;;24.98;7.88;;;4.90;99.90;;;;;;5012455;28;20047;-79
2021/11/26 09:04:49;;;;;;;20.13;7.72;;;4.90;99.90;;;;;;5053879;28;20043;-79
2021/11/26 09:07:16;;;;;;;19.67;6.97;;;4.90;99.90;;;;;;5008807;28;20056;-80
2021/11/26 09:09:42;;;;;;;27.20;8.32;;;4.90;99.90;;;;;;5003530;28;20033;-78
2021/11/26 09:12:09;;;;;;;19.77;7.13;;;5.00;99.90;;;;;;5006807;28;20056;-78
2021/11/26 09:14:35;;;;;;;22.67;7.15;;;5.00;99.90;;;;;;5034953;28;20037;-78
2021/11/26 09:17:02;;;;;;;24.95;6.70;;;5.00;99.90;;;;;;5024891;28;20424;-78
2021/11/26 09:19:28;;;;;;;21.05;8.68;;;5.10;99.90;;;;;;5030089;28;20044;-79
2021/11/26 09:21:55;;;;;;;34.05;9.98;;;5.10;99.90;;;;;;5043374;28;20043;-80
2021/11/26 09:24:21;;;;;;;25.08;8.32;;;5.10;99.90;;;;;;5047717;28;20037;-80
2021/11/26 09:26:48;;;;;;;23.48;7.93;;;5.10;99.90;;;;;;5031532;28;20040;-79
2021/11/26 09:29:15;;;;;;;22.08;7.30;;;5.10;99.90;;;;;;5027788;28;20048;-78
2021/11/26 09:31:42;;;;;;;29.08;8.13;;;5.10;99.90;;;;;;5038157;28;20357;-80
2021/11/26 09:34:08;;;;;;;29.92;7.68;;;5.10;99.90;;;;;;5066409;28;20036;-76
2021/11/26 09:36:43;;;;;;;23.77;8.48;;;5.10;99.90;;;;;;5070633;28;20028;-81
2021/11/26 09:39:15;;;;;;;32.42;7.88;;;5.10;99.90;;;;;;5046036;28;20414;-81
2021/11/26 09:41:43;;;;;;;33.33;9.45;;;5.10;99.90;;;;;;5070145;28;20055;-79
2021/11/26 09:44:12;;;;;;;20.38;6.93;;;5.10;99.90;;;;;;5071742;28;20040;-78
2021/11/26 09:46:50;;;;;;;28.70;7.18;;;5.10;99.90;;;;;;5028768;28;20116;-79
2021/11/26 09:49:17;;;;;;;22.15;6.80;;;5.00;99.90;;;;;;5050149;28;20122;-78
2021/11/26 09:51:43;;;;;;;18.98;6.00;;;5.00;99.90;;;;;;5030343;28;20033;-77
2021/11/26 09:54:10;;;;;;;27.38;7.32;;;5.10;99.90;;;;;;5061693;28;20467;-78
2021/11/26 09:56:36;;;;;;;21.08;6.55;;;5.00;99.90;;;;;;5082487;28;20041;-76
2021/11/26 09:59:03;;;;;;;20.45;7.85;;;5.10;99.90;;;;;;5046191;28;20040;-77
2021/11/26 10:01:31;;;;;;;21.85;6.20;;;5.10;99.90;;;;;;5084100;28;20048;-78
2021/11/26 10:03:57;;;;;;;19.92;6.50;;;5.20;99.90;;;;;;5055375;28;20045;-78
2021/11/26 10:06:38;;;;;;;23.20;7.20;;;5.20;99.90;;;;;;5048254;28;20032;-78
2021/11/26 10:09:22;;;;;;;21.70;6.32;;;5.30;99.90;;;;;;5068187;28;20028;-78
2021/11/26 10:11:55;;;;;;;16.33;5.72;;;5.40;99.90;;;;;;5066361;28;20032;-79
2021/11/26 10:14:31;;;;;;;14.05;5.15;;;5.50;99.90;;;;;;5091741;28;20032;-81
2021/11/26 10:17:21;;;;;;;14.15;4.63;;;5.70;99.90;;;;;;5062567;28;20040;-77
2021/11/26 10:20:00;;;;;;;16.10;4.40;;;5.90;99.90;;;;;;5059809;28;20044;-78
2021/11/26 10:22:33;;;;;;;13.27;3.63;;;6.00;99.90;;;;;;5060140;28;20035;-78
2021/11/26 10:25:15;;;;;;;14.50;4.22;;;6.20;99.90;;;;;;5093743;28;20043;-80
2021/11/26 10:28:00;;;;;;;14.00;2.92;;;6.30;99.90;;;;;;5050411;28;20048;-82
2021/11/26 10:30:35;;;;;;;15.57;4.60;;;6.40;99.90;;;;;;5041028;28;20043;-81
2021/11/26 10:33:05;;;;;;;16.38;4.13;;;6.50;99.90;;;;;;5082443;28;20328;-79
2021/11/26 10:35:34;;;;;;;23.20;8.95;;;6.70;99.90;;;;;;5065413;28;20028;-79
2021/11/26 10:38:06;;;;;;;17.50;5.00;;;6.80;99.90;;;;;;5067086;28;20039;-80
2021/11/26 10:40:35;;;;;;;13.00;4.25;;;6.90;99.90;;;;;;5050127;28;20043;-82
2021/11/26 10:43:12;;;;;;;12.70;4.57;;;6.90;99.90;;;;;;5066716;28;20044;-79
2021/11/26 10:59:52;;;;;;;13.38;3.92;;;6.80;99.90;;;;;;5052522;28;20037;-81
2021/11/26 11:02:36;;;;;;;10.05;2.83;;;6.70;99.90;;;;;;5063505;28;20035;-82
2021/11/26 11:05:05;;;;;;;7.97;3.30;;;6.60;99.90;;;;;;5065144;28;20031;-82
2021/11/26 11:07:45;;;;;;;11.95;3.80;;;6.50;99.90;;;;;;5078769;28;20052;-81
2021/11/26 11:10:26;;;;;;;9.15;2.92;;;6.50;99.90;;;;;;5053950;28;20039;-82
2021/11/26 11:12:53;;;;;;;11.75;3.65;;;6.50;99.90;;;;;;5077914;28;20043;-82
2021/11/26 11:15:20;;;;;;;14.23;3.58;;;6.50;99.90;;;;;;5071839;28;20040;-81
2021/11/26 11:17:49;;;;;;;11.38;3.72;;;6.50;99.90;;;;;;5095342;28;20028;-82
2021/11/26 11:20:17;;;;;;;11.35;2.67;;;6.50;99.90;;;;;;5061706;28;20055;-82
2021/11/26 11:22:45;;;;;;;10.88;3.35;;;6.50;99.90;;;;;;5068466;28;20047;-82
2021/11/26 11:25:17;;;;;;;11.63;2.78;;;6.50;99.90;;;;;;5078735;28;20025;-81
2021/11/26 11:27:43;;;;;;;6.55;2.63;;;6.50;99.90;;;;;;5074326;28;20040;-82
2021/11/26 11:30:11;;;;;;;12.73;3.65;;;6.50;99.90;;;;;;5051623;28;20426;-86
2021/11/26 11:32:39;;;;;;;12.02;4.63;;;6.50;99.90;;;;;;5090543;28;20051;-85
2021/11/26 11:35:08;;;;;;;17.63;3.78;;;6.40;99.90;;;;;;5047396;28;20043;-85
2021/11/26 11:37:36;;;;;;;12.05;2.90;;;6.40;99.90;;;;;;5047073;28;20039;-84
2021/11/26 11:40:07;;;;;;;12.20;2.83;;;6.40;99.90;;;;;;5067100;28;20052;-84
2021/11/26 11:42:37;;;;;;;19.10;2.72;;;6.40;99.90;;;;;;5069526;28;20226;-84
2021/11/26 11:45:15;;;;;;;8.48;2.67;;;6.40;99.90;;;;;;5063253;28;20031;-84
2021/11/26 11:47:47;;;;;;;12.35;3.00;;;6.40;99.90;;;;;;5065237;28;20047;-83
2021/11/26 11:50:17;;;;;;;16.23;3.40;;;6.40;99.90;;;;;;5065402;28;20447;-83
2021/11/26 11:52:48;;;;;;;12.35;3.40;;;6.40;99.90;;;;;;5047653;28;20028;-82
2021/11/26 11:55:28;;;;;;;11.27;3.83;;;6.40;99.90;;;;;;5065919;28;20039;-83
2021/11/26 11:58:22;;;;;;;15.05;5.20;;;6.40;99.90;;;;;;5062139;28;20029;-83
2021/11/26 12:00:53;;;;;;;14.40;3.95;;;6.40;99.90;;;;;;5045649;28;20043;-86
2021/11/26 12:03:24;;;;;;;12.07;3.38;;;6.50;99.90;;;;;;5054976;28;20491;-85
2021/11/26 12:05:58;;;;;;;12.48;3.55;;;6.50;99.90;;;;;;5030232;28;20036;-83
2021/11/26 12:08:25;;;;;;;11.13;3.78;;;6.50;99.90;;;;;;5037917;28;20055;-83
2021/11/26 12:10:55;;;;;;;11.60;3.83;;;6.50;99.90;;;;;;5047572;28;20040;-84
2021/11/26 12:13:27;;;;;;;12.02;2.85;;;6.50;99.90;;;;;;5086802;28;20028;-83
2021/11/26 12:16:11;;;;;;;8.27;3.70;;;6.50;99.90;;;;;;5066105;28;20037;-83
2021/11/26 12:18:47;;;;;;;10.50;3.08;;;6.40;99.90;;;;;;5047709;28;20024;-83
2021/11/26 12:21:17;;;;;;;15.43;3.42;;;6.40;99.90;;;;;;5036414;28;20070;-83
2021/11/26 12:26:49;;;;;;;9.52;2.78;;;6.20;99.90;;;;;;5028654;28;20048;-83
2021/11/26 12:29:17;;;;;;;9.45;3.03;;;6.10;99.90;;;;;;5085355;28;20487;-83
2021/11/26 12:31:44;;;;;;;7.00;2.20;;;6.10;99.90;;;;;;5060918;28;20064;-79
2021/11/26 12:34:14;;;;;;;10.15;3.15;;;6.00;99.90;;;;;;5066347;28;20037;-83
2021/11/26 12:36:43;;;;;;;8.93;2.83;;;5.90;99.90;;;;;;5066505;28;21162;-84
2021/11/26 12:39:18;;;;;;;10.98;4.07;;;5.90;99.90;;;;;;5039860;28;20052;-83
2021/11/26 12:41:46;;;;;;;14.98;4.88;;;5.80;99.90;;;;;;5074957;28;20461;-82
2021/11/26 12:44:34;;;;;;;9.20;3.47;;;5.80;99.90;;;;;;5049454;28;20038;-84
2021/11/26 12:47:09;;;;;;;9.60;3.20;;;5.70;99.90;;;;;;5066067;28;20043;-85
2021/11/26 12:52:15;;;;;;;9.70;4.10;;;5.60;99.90;;;;;;5063541;28;20040;-85
2021/11/26 12:54:47;;;;;;;8.57;3.97;;;5.50;99.90;;;;;;5051173;28;20039;-84
2021/11/26 12:57:30;;;;;;;10.65;5.07;;;5.40;99.90;;;;;;5061835;28;20040;-85
2021/11/26 13:00:08;;;;;;;10.60;4.07;;;5.40;99.90;;;;;;5080895;28;20051;-85
2021/11/26 13:02:36;;;;;;;12.63;4.15;;;5.30;99.90;;;;;;5049147;28;20372;-85
2021/11/26 13:05:06;;;;;;;13.63;4.60;;;5.20;99.90;;;;;;5053673;28;20036;-85
2021/11/26 13:07:35;;;;;;;13.50;3.67;;;5.20;99.90;;;;;;5066416;28;20044;-83
2021/11/26 13:10:26;;;;;;;10.07;3.43;;;5.20;99.90;;;;;;5043874;28;20044;-84
2021/11/26 13:13:00;;;;;;;9.35;4.15;;;5.10;99.90;;;;;;5033575;28;20738;-85
2021/11/26 13:15:37;;;;;;;9.43;5.18;;;5.10;99.90;;;;;;5061600;28;20024;-85
2021/11/26 13:18:16;;;;;;;9.57;4.88;;;5.10;99.90;;;;;;5045806;28;20530;-86
2021/11/26 13:20:52;;;;;;;6.32;3.15;;;5.00;99.90;;;;;;5045092;28;20041;-85
2021/11/26 13:23:22;;;;;;;8.15;4.25;;;5.00;99.90;;;;;;5074824;28;20032;-84
2021/11/26 13:25:53;;;;;;;12.60;5.40;;;4.90;99.90;;;;;;5061797;28;20387;-83
2021/11/26 13:28:23;;;;;;;11.52;4.47;;;4.90;99.90;;;;;;5064041;28;20033;-84
2021/11/26 13:31:09;;;;;;;9.82;3.42;;;4.90;99.90;;;;;;5082619;28;20382;-83
2021/11/26 13:33:40;;;;;;;7.70;2.22;;;4.90;99.90;;;;;;5079994;28;20035;-84
2021/11/26 13:36:21;;;;;;;8.15;3.20;;;4.90;99.90;;;;;;5085206;28;20032;-83
2021/11/26 13:38:50;;;;;;;6.72;2.60;;;4.80;99.90;;;;;;5064583;28;20040;-82
2021/11/26 13:41:29;;;;;;;5.38;2.85;;;4.80;99.90;;;;;;5081766;28;20040;-82
2021/11/26 13:43:59;;;;;;;8.77;2.67;;;4.70;99.90;;;;;;5043093;28;20471;-82
2021/11/26 13:46:40;;;;;;;6.88;3.00;;;4.70;99.90;;;;;;5051148;28;20040;-83
2021/11/26 13:49:13;;;;;;;6.95;2.72;;;4.70;99.90;;;;;;5100153;28;20047;-83
2021/11/26 13:51:52;;;;;;;5.53;2.85;;;4.70;99.90;;;;;;5072083;28;20113;-84
2021/11/26 13:54:21;;;;;;;8.77;3.38;;;4.60;99.90;;;;;;5040661;28;20028;-84
2021/11/26 13:56:51;;;;;;;7.93;3.25;;;4.60;99.90;;;;;;5076335;28;20036;-84
2021/11/26 13:59:26;;;;;;;8.23;2.67;;;4.60;99.90;;;;;;5058604;28;20436;-84